createdAt,value
2022-11-02T00:00:41.498Z,16.60
2022-11-02T00:03:08.917Z,16.60
2022-11-02T00:05:36.541Z,16.60
2022-11-02T00:08:04.301Z,16.60
2022-11-02T00:10:31.564Z,16.60
2022-11-02T00:13:01.514Z,16.60
2022-11-02T00:15:31.604Z,16.50
2022-11-02T00:18:09.819Z,16.50
2022-11-02T00:20:39.175Z,16.50
2022-11-02T00:23:10.900Z,16.50
2022-11-02T00:26:00.685Z,16.50
2022-11-02T00:28:30.233Z,16.40
2022-11-02T00:30:59.878Z,16.40
2022-11-02T00:33:29.551Z,16.40
2022-11-02T00:35:59.214Z,16.40
2022-11-02T00:38:26.359Z,16.40
2022-11-02T00:40:53.459Z,16.40
2022-11-02T00:43:23.075Z,16.30
2022-11-02T00:45:50.226Z,16.30
2022-11-02T00:48:17.338Z,16.30
2022-11-02T00:50:47.011Z,16.30
2022-11-02T00:53:14.104Z,16.30
2022-11-02T00:55:41.153Z,16.30
2022-11-02T00:58:08.441Z,16.30
2022-11-02T01:00:35.663Z,16.30
2022-11-02T01:03:05.139Z,16.20
2022-11-02T01:05:32.273Z,16.30
2022-11-02T01:07:59.421Z,16.20
2022-11-02T01:10:26.546Z,16.20
2022-11-02T01:12:53.654Z,16.20
2022-11-02T01:15:20.803Z,16.20
2022-11-02T01:17:50.113Z,16.20
2022-11-02T01:20:17.265Z,16.20
2022-11-02T01:22:44.453Z,16.20
2022-11-02T01:25:11.575Z,16.20
2022-11-02T01:27:40.975Z,16.20
2022-11-02T01:30:08.498Z,16.10
2022-11-02T01:32:35.625Z,16.10
2022-11-02T01:35:03.055Z,16.10
2022-11-02T01:37:30.130Z,16.10
2022-11-02T01:39:57.221Z,16.00
2022-11-02T01:42:27.959Z,16.00
2022-11-02T01:44:55.116Z,16.00
2022-11-02T01:47:27.673Z,16.00
2022-11-02T01:50:06.823Z,15.90
2022-11-02T01:52:37.989Z,15.90
2022-11-02T01:55:25.140Z,15.90
2022-11-02T01:58:03.042Z,15.90
2022-11-02T02:00:33.395Z,15.90
2022-11-02T02:03:12.586Z,15.80
2022-11-02T02:05:43.625Z,15.80
2022-11-02T02:08:14.445Z,15.80
2022-11-02T02:10:41.558Z,15.80
2022-11-02T02:13:08.728Z,15.70
2022-11-02T02:16:05.496Z,15.70
2022-11-02T02:18:51.450Z,15.70
2022-11-02T02:21:58.525Z,15.70
2022-11-02T02:24:44.241Z,15.60
2022-11-02T02:27:24.293Z,15.60
2022-11-02T02:30:09.776Z,15.60
2022-11-02T02:33:02.732Z,15.60
2022-11-02T02:35:41.261Z,15.60
2022-11-02T02:38:15.251Z,15.60
2022-11-02T02:41:10.344Z,15.60
2022-11-02T02:43:46.199Z,15.60
2022-11-02T02:46:21.826Z,15.60
2022-11-02T02:48:51.794Z,15.60
2022-11-02T02:51:27.836Z,15.60
2022-11-02T02:54:12.193Z,15.50
2022-11-02T02:56:50.417Z,15.50
2022-11-02T02:59:29.327Z,15.50
2022-11-02T03:01:58.523Z,15.50
2022-11-02T03:04:26.126Z,15.50
2022-11-02T03:06:57.979Z,15.50
2022-11-02T03:09:43.999Z,15.50
2022-11-02T03:12:28.863Z,15.50
2022-11-02T03:15:25.031Z,15.50
2022-11-02T03:18:14.639Z,15.40
2022-11-02T03:20:59.040Z,15.40
2022-11-02T03:23:34.684Z,15.40
2022-11-02T03:26:05.227Z,15.40
2022-11-02T03:28:50.480Z,15.40
2022-11-02T03:31:22.454Z,15.40
2022-11-02T03:34:00.384Z,15.30
2022-11-02T03:36:39.391Z,15.30
2022-11-02T03:39:14.372Z,15.30
2022-11-02T03:41:44.836Z,15.30
2022-11-02T03:44:16.402Z,15.30
2022-11-02T03:46:44.751Z,15.30
2022-11-02T03:49:16.572Z,15.30
2022-11-02T03:51:48.437Z,15.30
2022-11-02T03:54:48.956Z,15.30
2022-11-02T03:57:22.378Z,15.30
2022-11-02T03:59:49.845Z,15.30
2022-11-02T04:02:18.721Z,15.20
2022-11-02T04:04:53.687Z,15.20
2022-11-02T04:07:25.888Z,15.20
2022-11-02T04:09:53.077Z,15.20
2022-11-02T04:12:38.615Z,15.20
2022-11-02T04:15:08.854Z,15.20
2022-11-02T04:17:54.642Z,15.20
2022-11-02T04:20:21.725Z,15.10
2022-11-02T04:23:07.682Z,15.20
2022-11-02T04:25:34.775Z,15.10
2022-11-02T04:28:08.897Z,15.10
2022-11-02T04:30:36.024Z,15.10
2022-11-02T04:33:24.191Z,15.10
2022-11-02T04:35:51.455Z,15.10
2022-11-02T04:38:37.222Z,15.00
2022-11-02T04:41:26.363Z,15.00
2022-11-02T04:43:53.937Z,15.00
2022-11-02T04:46:22.560Z,15.00
2022-11-02T04:48:50.302Z,15.00
2022-11-02T04:51:17.779Z,14.90
2022-11-02T04:53:44.889Z,15.00
2022-11-02T04:56:14.465Z,15.00
2022-11-02T04:58:41.711Z,15.00
2022-11-02T05:01:13.884Z,15.00
2022-11-02T05:03:43.730Z,15.00
2022-11-02T05:06:11.482Z,15.00
2022-11-02T05:08:43.233Z,15.00
2022-11-02T05:11:13.385Z,14.90
2022-11-02T05:13:41.856Z,14.90
2022-11-02T05:16:14.507Z,14.90
2022-11-02T05:18:41.742Z,14.90
2022-11-02T05:21:12.324Z,14.90
2022-11-02T05:23:39.754Z,14.80
2022-11-02T05:26:12.157Z,14.80
2022-11-02T05:28:45.038Z,14.80
2022-11-02T05:31:12.105Z,14.80
2022-11-02T05:33:39.193Z,14.80
2022-11-02T05:36:06.755Z,14.80
2022-11-02T05:38:33.927Z,14.70
2022-11-02T05:41:02.559Z,14.70
2022-11-02T05:43:30.362Z,14.70
2022-11-02T05:46:01.742Z,14.70
2022-11-02T05:48:31.847Z,14.70
2022-11-02T05:51:03.067Z,14.70
2022-11-02T05:53:34.237Z,14.60
2022-11-02T05:56:03.463Z,14.60
2022-11-02T05:58:30.783Z,14.60
2022-11-02T06:01:02.662Z,14.50
2022-11-02T06:03:30.715Z,14.50
2022-11-02T06:06:06.335Z,14.50
2022-11-02T06:08:34.921Z,14.50
2022-11-02T06:11:13.285Z,14.50
2022-11-02T06:13:41.443Z,14.50
2022-11-02T06:16:11.248Z,14.50
2022-11-02T06:18:38.945Z,14.50
2022-11-02T06:21:06.643Z,14.50
2022-11-02T06:23:34.576Z,14.40
2022-11-02T06:26:04.378Z,14.50
2022-11-02T06:28:34.145Z,14.40
2022-11-02T06:31:03.759Z,14.40
2022-11-02T06:33:30.863Z,14.40
2022-11-02T06:36:00.625Z,14.40
2022-11-02T06:38:27.732Z,14.40
2022-11-02T06:40:59.797Z,14.40
2022-11-02T06:43:29.352Z,14.30
2022-11-02T06:45:59.901Z,14.30
2022-11-02T06:48:33.324Z,14.30
2022-11-02T06:51:03.017Z,14.30
2022-11-02T06:53:30.220Z,14.30
2022-11-02T06:55:59.264Z,14.30
2022-11-02T06:58:26.968Z,14.30
2022-11-02T07:01:07.174Z,14.20
2022-11-02T07:03:34.898Z,14.20
2022-11-02T07:06:02.167Z,14.20
2022-11-02T07:08:29.650Z,14.20
2022-11-02T07:10:59.477Z,14.20
2022-11-02T07:13:26.682Z,14.20
2022-11-02T07:15:55.209Z,14.20
2022-11-02T07:18:24.528Z,14.20
2022-11-02T07:20:53.899Z,14.20
2022-11-02T07:23:24.141Z,14.20
2022-11-02T07:25:52.153Z,14.20
2022-11-02T07:28:21.922Z,14.20
2022-11-02T07:30:49.054Z,14.20
2022-11-02T07:33:16.408Z,14.20
2022-11-02T07:35:43.814Z,14.20
2022-11-02T07:38:11.494Z,14.30
2022-11-02T07:40:39.238Z,14.30
2022-11-02T07:43:09.072Z,14.30
2022-11-02T07:45:36.495Z,14.30
2022-11-02T07:48:03.709Z,14.30
2022-11-02T07:50:30.917Z,14.30
2022-11-02T07:53:01.726Z,14.30
2022-11-02T07:55:30.900Z,14.20
2022-11-02T07:58:08.091Z,14.30
2022-11-02T08:00:39.390Z,14.30
2022-11-02T08:03:08.297Z,14.30
2022-11-02T08:05:37.991Z,14.30
2022-11-02T08:08:14.603Z,14.30
2022-11-02T08:10:42.777Z,14.40
2022-11-02T08:13:11.371Z,14.30
2022-11-02T08:15:38.807Z,14.30
2022-11-02T08:18:06.362Z,14.40
2022-11-02T08:20:36.000Z,14.40
2022-11-02T08:23:04.230Z,14.40
2022-11-02T08:25:32.154Z,14.40
2022-11-02T08:28:01.072Z,14.40
2022-11-02T08:30:29.916Z,14.50
2022-11-02T08:33:06.487Z,14.50
2022-11-02T08:35:34.824Z,14.50
2022-11-02T08:38:03.334Z,14.50
2022-11-02T08:40:30.829Z,14.50
2022-11-02T08:43:02.263Z,14.50
2022-11-02T08:46:08.498Z,14.50
2022-11-02T08:48:19.637Z,14.60
2022-11-02T08:50:48.690Z,14.50
2022-11-02T08:53:18.262Z,14.60
2022-11-02T08:55:45.407Z,14.60
2022-11-02T08:58:12.633Z,14.70
2022-11-02T09:00:39.867Z,14.70
2022-11-02T09:03:14.410Z,14.70
2022-11-02T09:05:46.587Z,14.70
2022-11-02T09:08:20.665Z,14.80
2022-11-02T09:10:51.524Z,14.90
2022-11-02T09:13:25.441Z,14.90
2022-11-02T09:15:55.597Z,14.90
2022-11-02T09:18:23.694Z,15.00
2022-11-02T09:20:51.590Z,15.00
2022-11-02T09:23:20.575Z,15.00
2022-11-02T09:25:48.365Z,15.00
2022-11-02T09:28:15.876Z,15.00
2022-11-02T09:30:43.408Z,15.00
2022-11-02T09:33:11.743Z,15.10
2022-11-02T09:35:44.428Z,15.10
2022-11-02T09:38:11.747Z,15.10
2022-11-02T09:40:55.279Z,15.10
2022-11-02T09:43:40.038Z,15.20
2022-11-02T09:46:13.588Z,15.20
2022-11-02T09:48:48.315Z,15.20
2022-11-02T09:51:29.437Z,15.20
2022-11-02T09:54:29.920Z,15.30
2022-11-02T09:57:01.842Z,15.30
2022-11-02T09:59:31.482Z,15.30
2022-11-02T10:02:19.859Z,15.40
2022-11-02T10:05:08.284Z,15.40
2022-11-02T10:07:55.859Z,15.40
2022-11-02T10:10:50.081Z,15.40
2022-11-02T10:13:42.552Z,15.40
2022-11-02T10:16:20.988Z,15.50
2022-11-02T10:18:51.955Z,15.50
2022-11-02T10:21:33.397Z,15.50
2022-11-02T10:24:25.768Z,15.50
2022-11-02T10:26:58.704Z,15.60
2022-11-02T10:29:56.694Z,15.60
2022-11-02T10:32:26.400Z,15.70
2022-11-02T10:34:59.217Z,15.60
2022-11-02T10:37:58.906Z,15.70
2022-11-02T10:40:47.783Z,15.70
2022-11-02T10:43:53.080Z,15.70
2022-11-02T10:46:48.051Z,15.70
2022-11-02T10:49:30.248Z,15.80
2022-11-02T10:51:57.486Z,15.80
2022-11-02T10:54:33.179Z,15.90
2022-11-02T10:57:13.914Z,15.90
2022-11-02T10:59:41.181Z,16.00
2022-11-02T11:02:14.057Z,16.00
2022-11-02T11:04:44.798Z,16.10
2022-11-02T11:07:27.751Z,16.10
2022-11-02T11:09:56.372Z,16.10
2022-11-02T11:12:34.042Z,16.20
2022-11-02T11:20:39.863Z,16.30
2022-11-02T11:23:25.974Z,16.40
2022-11-02T11:26:06.473Z,16.40
2022-11-02T11:28:52.085Z,16.50
2022-11-02T11:31:22.595Z,16.50
2022-11-02T11:33:54.646Z,16.50
2022-11-02T11:36:34.161Z,16.60
2022-11-02T11:39:04.771Z,16.60
2022-11-02T11:41:34.412Z,16.60
2022-11-02T11:44:02.921Z,16.60
2022-11-02T11:46:41.134Z,16.70
2022-11-02T11:49:20.257Z,16.60
2022-11-02T11:51:53.431Z,16.70
2022-11-02T11:54:30.220Z,16.70
2022-11-02T11:57:18.481Z,16.70
2022-11-02T11:59:47.777Z,16.70
2022-11-02T12:02:30.953Z,16.80
2022-11-02T12:05:13.266Z,16.80
2022-11-02T12:07:43.152Z,16.80
2022-11-02T12:10:31.714Z,16.80
2022-11-02T12:13:13.962Z,16.90
2022-11-02T12:15:52.293Z,16.90
2022-11-02T12:18:42.610Z,16.80
2022-11-02T12:21:20.818Z,16.90
2022-11-02T12:24:33.137Z,16.90
2022-11-02T12:27:19.260Z,17.00
2022-11-02T12:30:09.782Z,17.00
2022-11-02T12:32:58.692Z,17.00
2022-11-02T12:35:43.199Z,17.10
2022-11-02T12:38:48.136Z,17.10
2022-11-02T12:41:45.764Z,17.10
2022-11-02T12:44:38.816Z,17.10
2022-11-02T12:47:36.501Z,17.10
2022-11-02T12:50:36.084Z,17.10
2022-11-02T12:53:30.061Z,17.10
2022-11-02T12:56:02.361Z,17.10
2022-11-02T12:58:32.972Z,17.00
2022-11-02T13:01:27.406Z,17.00
2022-11-02T13:04:17.435Z,17.10
2022-11-02T13:06:49.055Z,17.10
2022-11-02T13:09:16.201Z,17.20
2022-11-02T13:11:51.516Z,17.20
2022-11-02T13:14:21.728Z,17.20
2022-11-02T13:17:01.534Z,17.20
2022-11-02T13:19:48.940Z,17.20
2022-11-02T13:22:18.303Z,17.20
2022-11-02T13:24:55.023Z,17.20
2022-11-02T13:27:48.371Z,17.20
2022-11-02T13:30:18.056Z,17.20
2022-11-02T13:33:01.659Z,17.20
2022-11-02T13:35:37.921Z,17.20
2022-11-02T13:38:31.817Z,17.20
2022-11-02T13:41:24.929Z,17.20
2022-11-02T13:43:57.100Z,17.10
2022-11-02T13:47:07.271Z,17.10
2022-11-02T13:49:52.730Z,17.10
2022-11-02T13:52:42.530Z,17.10
2022-11-02T13:55:28.436Z,17.10
2022-11-02T13:57:58.982Z,17.10
2022-11-02T14:00:31.343Z,17.10
2022-11-02T14:03:03.719Z,17.10
2022-11-02T14:05:40.660Z,17.00
2022-11-02T14:08:11.528Z,17.10
2022-11-02T14:10:40.976Z,17.00
2022-11-02T14:13:14.063Z,17.00
2022-11-02T14:15:42.960Z,17.00
2022-11-02T14:18:10.006Z,17.00
2022-11-02T14:20:46.866Z,17.00
2022-11-02T14:23:14.429Z,17.00
2022-11-02T14:25:51.482Z,17.10
2022-11-02T14:28:49.412Z,17.10
2022-11-02T14:31:16.524Z,17.10
2022-11-02T14:33:56.946Z,17.10
2022-11-02T14:36:58.507Z,17.10
2022-11-02T14:39:56.857Z,17.10
2022-11-02T14:42:57.393Z,17.10
2022-11-02T14:45:35.980Z,17.10
2022-11-02T14:48:05.208Z,17.10
2022-11-02T14:50:35.000Z,17.10
2022-11-02T14:53:09.198Z,17.10
2022-11-02T14:55:38.885Z,17.10
2022-11-02T14:58:14.406Z,17.10
2022-11-02T15:00:47.630Z,17.10
2022-11-02T15:03:31.609Z,17.10
2022-11-02T15:06:03.858Z,17.10
2022-11-02T15:08:35.795Z,17.10
2022-11-02T15:11:40.315Z,17.10
2022-11-02T15:14:33.016Z,17.10
2022-11-02T15:17:00.271Z,17.10
2022-11-02T15:19:46.553Z,17.10
2022-11-02T15:22:35.150Z,17.10
2022-11-02T15:25:13.982Z,17.10
2022-11-02T15:27:43.873Z,17.10
2022-11-02T15:30:16.557Z,17.10
2022-11-02T15:32:58.909Z,17.00
2022-11-02T15:35:35.728Z,17.10
2022-11-02T15:38:27.943Z,17.00
2022-11-02T15:41:28.439Z,17.00
2022-11-02T15:44:18.780Z,17.00
2022-11-02T15:47:12.659Z,16.90
2022-11-02T15:50:05.609Z,16.90
2022-11-02T15:53:16.517Z,16.90
2022-11-02T15:55:42.861Z,16.90
2022-11-02T15:58:28.657Z,16.80
2022-11-02T16:01:28.298Z,16.80
2022-11-02T16:04:00.592Z,16.80
2022-11-02T16:06:39.498Z,16.70
2022-11-02T16:09:28.525Z,16.70
2022-11-02T16:12:24.996Z,16.70
2022-11-02T16:15:12.340Z,16.60
2022-11-02T16:17:40.115Z,16.50
2022-11-02T16:20:28.271Z,16.50
2022-11-02T16:23:04.229Z,16.40
2022-11-02T16:25:35.278Z,16.40
2022-11-02T16:28:25.580Z,16.30
2022-11-02T16:31:18.070Z,16.30
2022-11-02T16:34:01.125Z,16.30
2022-11-02T16:36:46.802Z,16.20
2022-11-02T16:39:16.624Z,16.20
2022-11-02T16:41:50.709Z,16.10
2022-11-02T16:44:27.244Z,16.10
2022-11-02T16:47:12.123Z,16.10
2022-11-02T16:49:51.149Z,16.00
2022-11-02T16:52:37.871Z,16.00
2022-11-02T16:55:47.384Z,16.00
2022-11-02T16:58:26.446Z,15.90
2022-11-02T17:00:58.186Z,15.90
2022-11-02T17:03:30.636Z,15.80
2022-11-02T17:06:00.301Z,15.80
2022-11-02T17:08:38.378Z,15.80
2022-11-02T17:11:11.708Z,15.70
2022-11-02T17:13:48.089Z,15.70
2022-11-02T17:16:15.267Z,15.70
2022-11-02T17:18:42.558Z,15.60
2022-11-02T17:21:12.812Z,15.60
2022-11-02T17:23:47.730Z,15.60
2022-11-02T17:26:24.816Z,15.60
2022-11-02T17:28:59.488Z,15.50
2022-11-02T17:31:33.788Z,15.50
2022-11-02T17:34:09.034Z,15.50
2022-11-02T17:36:43.025Z,15.50
2022-11-02T17:39:17.616Z,15.50
2022-11-02T17:42:05.828Z,15.40
2022-11-02T17:44:33.544Z,15.40
2022-11-02T17:47:01.050Z,15.40
2022-11-02T17:49:28.144Z,15.40
2022-11-02T17:51:57.767Z,15.40
2022-11-02T17:54:25.079Z,15.40
2022-11-02T17:56:52.171Z,15.40
2022-11-02T17:59:19.274Z,15.30
2022-11-02T18:01:46.585Z,15.40
2022-11-02T18:04:16.180Z,15.30
2022-11-02T18:06:43.286Z,15.30
2022-11-02T18:09:19.619Z,15.30
2022-11-02T18:11:47.279Z,15.30
2022-11-02T18:14:16.792Z,15.30
2022-11-02T18:16:47.952Z,15.30
2022-11-02T18:19:16.792Z,15.30
2022-11-02T18:21:46.342Z,15.30
2022-11-02T18:24:13.479Z,15.30
2022-11-02T18:26:44.172Z,15.30
2022-11-02T18:29:14.200Z,15.30
2022-11-02T18:31:41.292Z,15.30
2022-11-02T18:34:09.947Z,15.30
2022-11-02T18:36:41.035Z,15.30
2022-11-02T18:39:08.128Z,15.30
2022-11-02T18:41:37.068Z,15.30
2022-11-02T18:44:11.982Z,15.30
2022-11-02T18:46:42.447Z,15.20
2022-11-02T18:49:11.971Z,15.20
2022-11-02T18:51:47.747Z,15.20
2022-11-02T18:54:17.814Z,15.20
2022-11-02T18:56:45.448Z,15.20
2022-11-02T18:59:20.110Z,15.20
2022-11-02T19:01:47.328Z,15.20
2022-11-02T19:04:17.844Z,15.20
2022-11-02T19:07:04.258Z,15.20
2022-11-02T19:09:33.833Z,15.20
2022-11-02T19:12:03.470Z,15.10
2022-11-02T19:14:39.806Z,15.10
2022-11-02T19:17:10.705Z,15.10
2022-11-02T19:19:40.807Z,15.10
2022-11-02T19:22:07.976Z,15.10
2022-11-02T19:24:35.169Z,15.10
2022-11-02T19:27:02.242Z,15.10
2022-11-02T19:29:29.389Z,15.10
2022-11-02T19:31:56.437Z,15.10
2022-11-02T19:34:23.991Z,15.10
2022-11-02T19:36:53.809Z,15.10
2022-11-02T19:39:20.958Z,15.10
2022-11-02T19:41:51.950Z,15.10
2022-11-02T19:44:19.192Z,15.10
2022-11-02T19:46:48.648Z,15.10
2022-11-02T19:49:15.805Z,15.10
2022-11-02T19:51:45.446Z,15.10
2022-11-02T19:54:12.588Z,15.10
2022-11-02T19:56:39.831Z,15.10
2022-11-02T19:59:07.071Z,15.10
2022-11-02T20:01:39.016Z,15.10
2022-11-02T20:04:06.798Z,15.10
2022-11-02T20:06:39.603Z,15.10
2022-11-02T20:09:13.045Z,15.10
2022-11-02T20:11:45.510Z,15.10
2022-11-02T20:14:14.593Z,15.10
2022-11-02T20:16:41.878Z,15.10
2022-11-02T20:19:09.573Z,15.10
2022-11-02T20:21:42.669Z,15.10
2022-11-02T20:24:11.580Z,15.10
2022-11-02T20:26:42.448Z,15.10
2022-11-02T20:29:12.308Z,15.10
2022-11-02T20:31:44.218Z,15.10
2022-11-02T20:34:13.283Z,15.10
2022-11-02T20:36:42.837Z,15.10
2022-11-02T20:39:10.993Z,15.10
2022-11-02T20:41:38.157Z,15.10
2022-11-02T20:44:05.299Z,15.10
2022-11-02T20:46:41.836Z,15.10
2022-11-02T20:51:57.523Z,15.10
2022-11-02T20:54:25.155Z,15.10
2022-11-02T20:56:52.456Z,15.10
2022-11-02T20:59:19.586Z,15.20
2022-11-02T21:01:46.763Z,15.10
2022-11-02T21:04:19.897Z,15.10
2022-11-02T21:06:49.537Z,15.10
2022-11-02T21:09:17.736Z,15.10
2022-11-02T21:12:03.567Z,15.10
2022-11-02T21:14:30.686Z,15.10
2022-11-02T21:16:57.876Z,15.10
2022-11-02T21:19:25.044Z,15.10
2022-11-02T21:21:59.369Z,15.10
2022-11-02T21:24:27.780Z,15.10
2022-11-02T21:26:54.928Z,15.10
2022-11-02T21:29:22.653Z,15.20
2022-11-02T21:31:50.015Z,15.10
2022-11-02T21:34:21.723Z,15.10
2022-11-02T21:36:48.900Z,15.20
2022-11-02T21:39:18.194Z,15.10
2022-11-02T21:41:45.422Z,15.10
2022-11-02T21:44:12.568Z,15.20
2022-11-02T21:46:42.316Z,15.20
2022-11-02T21:49:09.596Z,15.20
2022-11-02T21:51:38.430Z,15.20
2022-11-02T21:54:05.712Z,15.20
2022-11-02T21:56:34.212Z,15.20
2022-11-02T21:59:06.058Z,15.20
2022-11-02T22:01:49.627Z,15.10
2022-11-02T22:04:28.270Z,15.20
2022-11-02T22:06:56.195Z,15.20
2022-11-02T22:09:23.652Z,15.10
2022-11-02T22:12:11.146Z,15.10
2022-11-02T22:14:56.798Z,15.10
2022-11-02T22:17:48.741Z,15.10
2022-11-02T22:20:17.134Z,15.10
2022-11-02T22:22:45.010Z,15.10
2022-11-02T22:25:12.154Z,15.10
2022-11-02T22:27:39.242Z,15.10
2022-11-02T22:30:09.215Z,15.10
2022-11-02T22:32:36.318Z,15.10
2022-11-02T22:35:03.527Z,15.10
2022-11-02T22:37:49.274Z,15.10
2022-11-02T22:40:16.620Z,15.10
2022-11-02T22:42:53.059Z,15.10
2022-11-02T22:45:39.885Z,15.10
2022-11-02T22:48:09.403Z,15.10
2022-11-02T22:50:44.110Z,15.10
2022-11-02T22:53:11.379Z,15.10
2022-11-02T22:55:40.499Z,15.10
2022-11-02T22:58:07.621Z,15.10
2022-11-02T23:00:34.721Z,15.10
2022-11-02T23:03:01.830Z,15.00
2022-11-02T23:05:33.250Z,15.10
2022-11-02T23:08:02.441Z,15.00
2022-11-02T23:10:53.468Z,15.00
2022-11-02T23:13:22.267Z,15.00
2022-11-02T23:15:49.589Z,15.00
2022-11-02T23:18:17.000Z,15.00
2022-11-02T23:20:55.906Z,15.00
2022-11-02T23:23:41.265Z,15.00
2022-11-02T23:26:08.355Z,15.00
2022-11-02T23:28:54.224Z,15.00
2022-11-02T23:31:39.612Z,15.00
2022-11-02T23:34:06.718Z,15.00
2022-11-02T23:36:33.792Z,15.00
2022-11-02T23:39:19.520Z,15.00
2022-11-02T23:41:46.631Z,15.00
2022-11-02T23:44:16.468Z,15.00
2022-11-02T23:46:51.090Z,15.00
2022-11-02T23:49:20.311Z,15.00
2022-11-02T23:52:05.999Z,15.00
2022-11-02T23:54:51.630Z,15.00
2022-11-02T23:57:22.481Z,15.00
2022-11-02T23:59:50.191Z,15.00
